sensor_id;sensor_type;location;lat;lon;timestamp;P1;durP1;ratioP1;P2;durP2;ratioP2
77701;SDS011;66868;42.708;23.404;2023-04-30T00:01:38;13.73;;;11.52;;
77701;SDS011;66868;42.708;23.404;2023-04-30T00:04:03;17.13;;;11.07;;
77701;SDS011;66868;42.708;23.404;2023-04-30T00:06:29;14.13;;;10.93;;
77701;SDS011;66868;42.708;23.404;2023-04-30T00:08:55;12.00;;;9.93;;
77701;SDS011;66868;42.708;23.404;2023-04-30T00:11:20;15.13;;;10.68;;
77701;SDS011;66868;42.708;23.404;2023-04-30T00:13:45;11.88;;;10.45;;
77701;SDS011;66868;42.708;23.404;2023-04-30T00:16:11;16.17;;;10.35;;
77701;SDS011;66868;42.708;23.404;2023-04-30T00:18:37;17.52;;;10.63;;
77701;SDS011;66868;42.708;23.404;2023-04-30T00:21:02;13.23;;;10.10;;
77701;SDS011;66868;42.708;23.404;2023-04-30T00:23:28;16.30;;;10.63;;
77701;SDS011;66868;42.708;23.404;2023-04-30T00:25:54;12.90;;;9.77;;
77701;SDS011;66868;42.708;23.404;2023-04-30T00:28:19;14.00;;;10.38;;
77701;SDS011;66868;42.708;23.404;2023-04-30T00:30:52;12.05;;;9.73;;
77701;SDS011;66868;42.708;23.404;2023-04-30T00:33:17;10.98;;;9.63;;
77701;SDS011;66868;42.708;23.404;2023-04-30T00:35:43;10.52;;;9.27;;
77701;SDS011;66868;42.708;23.404;2023-04-30T00:38:08;14.40;;;9.00;;
77701;SDS011;66868;42.708;23.404;2023-04-30T00:40:34;10.50;;;8.90;;
77701;SDS011;66868;42.708;23.404;2023-04-30T00:43:00;13.65;;;8.82;;
77701;SDS011;66868;42.708;23.404;2023-04-30T00:45:25;12.07;;;8.50;;
77701;SDS011;66868;42.708;23.404;2023-04-30T00:47:51;11.43;;;9.50;;
77701;SDS011;66868;42.708;23.404;2023-04-30T00:50:16;11.80;;;7.63;;
77701;SDS011;66868;42.708;23.404;2023-04-30T00:52:42;13.65;;;8.48;;
77701;SDS011;66868;42.708;23.404;2023-04-30T00:55:08;11.43;;;8.32;;
77701;SDS011;66868;42.708;23.404;2023-04-30T00:57:35;12.77;;;7.80;;
77701;SDS011;66868;42.708;23.404;2023-04-30T01:00:01;9.07;;;7.82;;
77701;SDS011;66868;42.708;23.404;2023-04-30T01:02:28;8.45;;;7.53;;
77701;SDS011;66868;42.708;23.404;2023-04-30T01:04:54;7.68;;;6.85;;
77701;SDS011;66868;42.708;23.404;2023-04-30T01:07:20;12.30;;;7.85;;
77701;SDS011;66868;42.708;23.404;2023-04-30T01:09:46;8.73;;;7.72;;
77701;SDS011;66868;42.708;23.404;2023-04-30T01:12:28;7.57;;;6.75;;
77701;SDS011;66868;42.708;23.404;2023-04-30T01:15:00;10.23;;;8.82;;
77701;SDS011;66868;42.708;23.404;2023-04-30T01:17:36;11.38;;;8.50;;
77701;SDS011;66868;42.708;23.404;2023-04-30T01:20:06;10.88;;;7.53;;
77701;SDS011;66868;42.708;23.404;2023-04-30T01:28:31;11.38;;;8.20;;
77701;SDS011;66868;42.708;23.404;2023-04-30T01:31:00;11.75;;;8.05;;
77701;SDS011;66868;42.708;23.404;2023-04-30T01:33:25;12.88;;;7.85;;
77701;SDS011;66868;42.708;23.404;2023-04-30T01:41:19;21.77;;;8.85;;
77701;SDS011;66868;42.708;23.404;2023-04-30T01:46:36;15.00;;;9.35;;
77701;SDS011;66868;42.708;23.404;2023-04-30T01:51:43;11.50;;;8.35;;
77701;SDS011;66868;42.708;23.404;2023-04-30T01:56:59;11.43;;;7.50;;
77701;SDS011;66868;42.708;23.404;2023-04-30T01:59:35;9.40;;;7.43;;
77701;SDS011;66868;42.708;23.404;2023-04-30T02:02:03;7.75;;;6.95;;
77701;SDS011;66868;42.708;23.404;2023-04-30T02:04:30;8.43;;;7.53;;
77701;SDS011;66868;42.708;23.404;2023-04-30T02:06:55;9.95;;;7.38;;
77701;SDS011;66868;42.708;23.404;2023-04-30T02:09:22;10.27;;;8.18;;
77701;SDS011;66868;42.708;23.404;2023-04-30T02:11:48;10.40;;;9.30;;
77701;SDS011;66868;42.708;23.404;2023-04-30T02:14:14;14.85;;;9.48;;
77701;SDS011;66868;42.708;23.404;2023-04-30T02:16:39;10.70;;;8.57;;
77701;SDS011;66868;42.708;23.404;2023-04-30T02:19:04;12.48;;;8.63;;
77701;SDS011;66868;42.708;23.404;2023-04-30T02:21:30;10.68;;;8.07;;
77701;SDS011;66868;42.708;23.404;2023-04-30T02:23:55;11.43;;;8.82;;
77701;SDS011;66868;42.708;23.404;2023-04-30T02:26:21;14.45;;;9.00;;
77701;SDS011;66868;42.708;23.404;2023-04-30T02:28:46;12.77;;;9.13;;
77701;SDS011;66868;42.708;23.404;2023-04-30T02:31:12;10.88;;;8.95;;
77701;SDS011;66868;42.708;23.404;2023-04-30T02:33:37;10.77;;;9.13;;
77701;SDS011;66868;42.708;23.404;2023-04-30T02:36:02;11.88;;;9.10;;
77701;SDS011;66868;42.708;23.404;2023-04-30T02:38:28;12.73;;;9.23;;
77701;SDS011;66868;42.708;23.404;2023-04-30T02:40:53;11.73;;;8.90;;
77701;SDS011;66868;42.708;23.404;2023-04-30T02:43:19;10.43;;;8.60;;
77701;SDS011;66868;42.708;23.404;2023-04-30T02:45:44;10.98;;;8.52;;
77701;SDS011;66868;42.708;23.404;2023-04-30T02:48:10;12.20;;;8.43;;
77701;SDS011;66868;42.708;23.404;2023-04-30T02:50:35;9.75;;;8.75;;
77701;SDS011;66868;42.708;23.404;2023-04-30T02:53:01;10.77;;;8.38;;
77701;SDS011;66868;42.708;23.404;2023-04-30T02:55:26;16.20;;;8.77;;
77701;SDS011;66868;42.708;23.404;2023-04-30T02:57:52;12.20;;;8.70;;
77701;SDS011;66868;42.708;23.404;2023-04-30T03:00:17;11.38;;;9.65;;
77701;SDS011;66868;42.708;23.404;2023-04-30T03:02:43;21.48;;;12.32;;
77701;SDS011;66868;42.708;23.404;2023-04-30T03:05:08;20.52;;;12.07;;
77701;SDS011;66868;42.708;23.404;2023-04-30T03:07:34;16.20;;;11.82;;
77701;SDS011;66868;42.708;23.404;2023-04-30T03:10:00;18.98;;;12.63;;
77701;SDS011;66868;42.708;23.404;2023-04-30T03:12:25;21.73;;;13.27;;
77701;SDS011;66868;42.708;23.404;2023-04-30T03:14:50;19.00;;;12.77;;
77701;SDS011;66868;42.708;23.404;2023-04-30T03:17:16;19.80;;;13.00;;
77701;SDS011;66868;42.708;23.404;2023-04-30T03:19:41;19.02;;;12.85;;
77701;SDS011;66868;42.708;23.404;2023-04-30T03:22:07;17.80;;;12.88;;
77701;SDS011;66868;42.708;23.404;2023-04-30T03:24:32;20.20;;;13.02;;
77701;SDS011;66868;42.708;23.404;2023-04-30T03:26:57;19.20;;;12.23;;
77701;SDS011;66868;42.708;23.404;2023-04-30T03:29:23;19.63;;;11.65;;
77701;SDS011;66868;42.708;23.404;2023-04-30T03:31:48;17.95;;;12.80;;
77701;SDS011;66868;42.708;23.404;2023-04-30T03:34:13;18.70;;;12.98;;
77701;SDS011;66868;42.708;23.404;2023-04-30T03:36:39;15.82;;;11.73;;
77701;SDS011;66868;42.708;23.404;2023-04-30T03:39:05;15.23;;;9.50;;
77701;SDS011;66868;42.708;23.404;2023-04-30T03:41:30;11.07;;;9.20;;
77701;SDS011;66868;42.708;23.404;2023-04-30T03:43:56;14.32;;;9.57;;
77701;SDS011;66868;42.708;23.404;2023-04-30T03:46:21;12.85;;;9.13;;
77701;SDS011;66868;42.708;23.404;2023-04-30T03:48:46;13.65;;;9.20;;
77701;SDS011;66868;42.708;23.404;2023-04-30T03:51:12;11.48;;;8.93;;
77701;SDS011;66868;42.708;23.404;2023-04-30T03:53:37;19.40;;;8.90;;
77701;SDS011;66868;42.708;23.404;2023-04-30T03:56:03;13.05;;;8.50;;
77701;SDS011;66868;42.708;23.404;2023-04-30T03:58:29;14.55;;;9.25;;
77701;SDS011;66868;42.708;23.404;2023-04-30T04:00:54;10.57;;;8.43;;
77701;SDS011;66868;42.708;23.404;2023-04-30T04:03:20;12.18;;;9.35;;
77701;SDS011;66868;42.708;23.404;2023-04-30T04:05:46;13.48;;;9.02;;
77701;SDS011;66868;42.708;23.404;2023-04-30T04:08:13;12.07;;;9.35;;
77701;SDS011;66868;42.708;23.404;2023-04-30T04:10:38;11.75;;;8.57;;
77701;SDS011;66868;42.708;23.404;2023-04-30T04:13:04;26.75;;;9.73;;
77701;SDS011;66868;42.708;23.404;2023-04-30T04:15:30;12.80;;;9.15;;
77701;SDS011;66868;42.708;23.404;2023-04-30T04:17:56;15.82;;;8.57;;
77701;SDS011;66868;42.708;23.404;2023-04-30T04:20:21;16.50;;;8.77;;
77701;SDS011;66868;42.708;23.404;2023-04-30T04:22:47;12.88;;;8.95;;
77701;SDS011;66868;42.708;23.404;2023-04-30T04:25:13;14.07;;;9.15;;
77701;SDS011;66868;42.708;23.404;2023-04-30T04:27:39;12.02;;;8.38;;
77701;SDS011;66868;42.708;23.404;2023-04-30T04:30:05;14.40;;;8.70;;
77701;SDS011;66868;42.708;23.404;2023-04-30T04:32:30;9.05;;;7.57;;
77701;SDS011;66868;42.708;23.404;2023-04-30T04:34:56;12.73;;;7.82;;
77701;SDS011;66868;42.708;23.404;2023-04-30T04:37:22;8.90;;;8.02;;
77701;SDS011;66868;42.708;23.404;2023-04-30T04:39:47;13.02;;;8.50;;
77701;SDS011;66868;42.708;23.404;2023-04-30T04:42:14;12.82;;;9.75;;
77701;SDS011;66868;42.708;23.404;2023-04-30T04:44:40;18.05;;;10.45;;
77701;SDS011;66868;42.708;23.404;2023-04-30T04:47:06;13.38;;;10.73;;
77701;SDS011;66868;42.708;23.404;2023-04-30T04:49:32;12.43;;;9.52;;
77701;SDS011;66868;42.708;23.404;2023-04-30T04:51:57;10.85;;;8.07;;
77701;SDS011;66868;42.708;23.404;2023-04-30T04:54:22;8.77;;;7.00;;
77701;SDS011;66868;42.708;23.404;2023-04-30T04:56:48;8.30;;;7.40;;
77701;SDS011;66868;42.708;23.404;2023-04-30T04:59:13;8.13;;;7.32;;
77701;SDS011;66868;42.708;23.404;2023-04-30T05:01:39;11.10;;;8.50;;
77701;SDS011;66868;42.708;23.404;2023-04-30T05:04:04;9.90;;;8.55;;
77701;SDS011;66868;42.708;23.404;2023-04-30T05:06:30;11.65;;;9.23;;
77701;SDS011;66868;42.708;23.404;2023-04-30T05:08:56;9.20;;;8.25;;
77701;SDS011;66868;42.708;23.404;2023-04-30T05:11:21;11.48;;;8.55;;
77701;SDS011;66868;42.708;23.404;2023-04-30T05:13:46;11.98;;;9.45;;
77701;SDS011;66868;42.708;23.404;2023-04-30T05:16:12;14.27;;;10.10;;
77701;SDS011;66868;42.708;23.404;2023-04-30T05:18:37;11.10;;;10.00;;
77701;SDS011;66868;42.708;23.404;2023-04-30T05:21:03;12.85;;;10.15;;
77701;SDS011;66868;42.708;23.404;2023-04-30T05:23:28;9.93;;;9.00;;
77701;SDS011;66868;42.708;23.404;2023-04-30T05:25:53;9.82;;;8.93;;
77701;SDS011;66868;42.708;23.404;2023-04-30T05:28:19;11.13;;;9.35;;
77701;SDS011;66868;42.708;23.404;2023-04-30T05:30:44;12.02;;;9.07;;
77701;SDS011;66868;42.708;23.404;2023-04-30T05:33:10;17.23;;;9.57;;
77701;SDS011;66868;42.708;23.404;2023-04-30T05:35:35;10.32;;;8.80;;
77701;SDS011;66868;42.708;23.404;2023-04-30T05:38:01;9.80;;;8.90;;
77701;SDS011;66868;42.708;23.404;2023-04-30T05:40:27;11.13;;;8.82;;
77701;SDS011;66868;42.708;23.404;2023-04-30T05:42:53;15.88;;;9.80;;
77701;SDS011;66868;42.708;23.404;2023-04-30T05:45:18;9.52;;;8.52;;
77701;SDS011;66868;42.708;23.404;2023-04-30T05:47:44;9.50;;;7.95;;
77701;SDS011;66868;42.708;23.404;2023-04-30T05:50:09;9.40;;;8.48;;
77701;SDS011;66868;42.708;23.404;2023-04-30T05:52:35;9.82;;;8.82;;
77701;SDS011;66868;42.708;23.404;2023-04-30T05:55:00;9.10;;;8.30;;
77701;SDS011;66868;42.708;23.404;2023-04-30T05:57:25;12.18;;;8.95;;
77701;SDS011;66868;42.708;23.404;2023-04-30T05:59:51;11.30;;;8.63;;
77701;SDS011;66868;42.708;23.404;2023-04-30T06:02:17;10.77;;;9.25;;
77701;SDS011;66868;42.708;23.404;2023-04-30T06:04:43;9.75;;;8.75;;
77701;SDS011;66868;42.708;23.404;2023-04-30T06:07:08;12.52;;;9.70;;
77701;SDS011;66868;42.708;23.404;2023-04-30T06:09:35;10.15;;;9.13;;
77701;SDS011;66868;42.708;23.404;2023-04-30T06:12:00;10.48;;;9.40;;
77701;SDS011;66868;42.708;23.404;2023-04-30T06:14:26;13.13;;;10.38;;
77701;SDS011;66868;42.708;23.404;2023-04-30T06:16:52;10.85;;;9.73;;
77701;SDS011;66868;42.708;23.404;2023-04-30T06:19:17;12.77;;;9.25;;
77701;SDS011;66868;42.708;23.404;2023-04-30T06:21:43;11.95;;;9.90;;
77701;SDS011;66868;42.708;23.404;2023-04-30T06:24:08;13.18;;;10.25;;
77701;SDS011;66868;42.708;23.404;2023-04-30T06:26:34;16.05;;;10.75;;
77701;SDS011;66868;42.708;23.404;2023-04-30T06:28:59;13.15;;;10.90;;
77701;SDS011;66868;42.708;23.404;2023-04-30T06:31:25;13.18;;;11.30;;
77701;SDS011;66868;42.708;23.404;2023-04-30T06:33:51;16.95;;;11.10;;
77701;SDS011;66868;42.708;23.404;2023-04-30T06:36:16;13.98;;;10.63;;
77701;SDS011;66868;42.708;23.404;2023-04-30T06:38:42;16.83;;;11.32;;
77701;SDS011;66868;42.708;23.404;2023-04-30T06:41:08;17.70;;;11.43;;
77701;SDS011;66868;42.708;23.404;2023-04-30T06:43:33;14.63;;;11.43;;
77701;SDS011;66868;42.708;23.404;2023-04-30T06:45:59;16.50;;;10.98;;
77701;SDS011;66868;42.708;23.404;2023-04-30T06:48:24;17.15;;;12.40;;
77701;SDS011;66868;42.708;23.404;2023-04-30T06:50:53;23.30;;;12.27;;
77701;SDS011;66868;42.708;23.404;2023-04-30T06:53:24;12.38;;;11.05;;
77701;SDS011;66868;42.708;23.404;2023-04-30T06:55:49;15.52;;;11.05;;
77701;SDS011;66868;42.708;23.404;2023-04-30T06:58:16;12.02;;;10.70;;
77701;SDS011;66868;42.708;23.404;2023-04-30T07:00:42;12.75;;;9.43;;
77701;SDS011;66868;42.708;23.404;2023-04-30T07:03:08;25.20;;;15.95;;
77701;SDS011;66868;42.708;23.404;2023-04-30T07:05:33;15.57;;;12.40;;
77701;SDS011;66868;42.708;23.404;2023-04-30T07:07:59;13.05;;;9.98;;
77701;SDS011;66868;42.708;23.404;2023-04-30T07:10:25;12.77;;;8.48;;
77701;SDS011;66868;42.708;23.404;2023-04-30T07:12:51;9.18;;;7.70;;
77701;SDS011;66868;42.708;23.404;2023-04-30T07:15:17;8.80;;;6.90;;
77701;SDS011;66868;42.708;23.404;2023-04-30T07:17:42;11.00;;;7.88;;
77701;SDS011;66868;42.708;23.404;2023-04-30T07:20:08;7.88;;;7.20;;
77701;SDS011;66868;42.708;23.404;2023-04-30T07:22:33;11.30;;;7.88;;
77701;SDS011;66868;42.708;23.404;2023-04-30T07:24:59;9.60;;;7.47;;
77701;SDS011;66868;42.708;23.404;2023-04-30T07:27:25;10.55;;;8.15;;
77701;SDS011;66868;42.708;23.404;2023-04-30T07:29:53;9.20;;;7.38;;
77701;SDS011;66868;42.708;23.404;2023-04-30T07:32:19;9.82;;;8.70;;
77701;SDS011;66868;42.708;23.404;2023-04-30T07:34:45;9.68;;;8.70;;
77701;SDS011;66868;42.708;23.404;2023-04-30T07:37:11;12.75;;;9.10;;
77701;SDS011;66868;42.708;23.404;2023-04-30T07:39:36;11.82;;;9.20;;
77701;SDS011;66868;42.708;23.404;2023-04-30T07:42:02;13.73;;;8.98;;
77701;SDS011;66868;42.708;23.404;2023-04-30T07:44:28;14.90;;;9.95;;
77701;SDS011;66868;42.708;23.404;2023-04-30T07:46:54;10.43;;;9.27;;
77701;SDS011;66868;42.708;23.404;2023-04-30T07:49:20;9.73;;;8.57;;
77701;SDS011;66868;42.708;23.404;2023-04-30T07:51:45;18.30;;;10.38;;
77701;SDS011;66868;42.708;23.404;2023-04-30T07:54:11;10.77;;;8.40;;
77701;SDS011;66868;42.708;23.404;2023-04-30T07:56:36;12.38;;;9.07;;
77701;SDS011;66868;42.708;23.404;2023-04-30T07:59:02;15.43;;;9.77;;
77701;SDS011;66868;42.708;23.404;2023-04-30T08:01:27;14.90;;;9.55;;
77701;SDS011;66868;42.708;23.404;2023-04-30T08:03:53;15.73;;;8.75;;
77701;SDS011;66868;42.708;23.404;2023-04-30T08:06:18;24.40;;;9.45;;
77701;SDS011;66868;42.708;23.404;2023-04-30T08:08:44;13.52;;;9.10;;
77701;SDS011;66868;42.708;23.404;2023-04-30T08:11:09;14.50;;;9.20;;
77701;SDS011;66868;42.708;23.404;2023-04-30T08:13:36;12.98;;;9.45;;
77701;SDS011;66868;42.708;23.404;2023-04-30T08:16:01;22.70;;;9.63;;
77701;SDS011;66868;42.708;23.404;2023-04-30T08:18:27;12.02;;;7.53;;
77701;SDS011;66868;42.708;23.404;2023-04-30T08:20:53;11.65;;;7.93;;
77701;SDS011;66868;42.708;23.404;2023-04-30T08:23:18;20.25;;;8.93;;
77701;SDS011;66868;42.708;23.404;2023-04-30T08:25:43;21.98;;;9.05;;
77701;SDS011;66868;42.708;23.404;2023-04-30T08:28:09;18.52;;;9.90;;
77701;SDS011;66868;42.708;23.404;2023-04-30T08:30:34;16.25;;;9.07;;
77701;SDS011;66868;42.708;23.404;2023-04-30T08:32:59;10.80;;;8.00;;
77701;SDS011;66868;42.708;23.404;2023-04-30T08:35:25;12.85;;;7.30;;
77701;SDS011;66868;42.708;23.404;2023-04-30T08:37:50;14.93;;;7.03;;
77701;SDS011;66868;42.708;23.404;2023-04-30T08:40:16;18.80;;;7.43;;
77701;SDS011;66868;42.708;23.404;2023-04-30T08:42:43;7.50;;;6.80;;
77701;SDS011;66868;42.708;23.404;2023-04-30T08:45:14;9.57;;;7.40;;
77701;SDS011;66868;42.708;23.404;2023-04-30T08:47:40;11.35;;;6.93;;
77701;SDS011;66868;42.708;23.404;2023-04-30T08:50:06;9.55;;;6.30;;
77701;SDS011;66868;42.708;23.404;2023-04-30T08:52:33;11.60;;;6.25;;
77701;SDS011;66868;42.708;23.404;2023-04-30T08:54:59;21.42;;;14.90;;
77701;SDS011;66868;42.708;23.404;2023-04-30T08:57:25;15.02;;;7.20;;
77701;SDS011;66868;42.708;23.404;2023-04-30T08:59:51;7.35;;;5.53;;
77701;SDS011;66868;42.708;23.404;2023-04-30T09:02:18;14.57;;;6.13;;
77701;SDS011;66868;42.708;23.404;2023-04-30T09:04:43;9.45;;;5.95;;
77701;SDS011;66868;42.708;23.404;2023-04-30T09:07:09;6.30;;;5.70;;
77701;SDS011;66868;42.708;23.404;2023-04-30T09:09:38;16.58;;;5.38;;
77701;SDS011;66868;42.708;23.404;2023-04-30T09:12:11;6.30;;;5.28;;
77701;SDS011;66868;42.708;23.404;2023-04-30T09:14:49;5.85;;;5.22;;
77701;SDS011;66868;42.708;23.404;2023-04-30T09:17:26;5.82;;;5.28;;
77701;SDS011;66868;42.708;23.404;2023-04-30T09:19:52;7.07;;;4.72;;
77701;SDS011;66868;42.708;23.404;2023-04-30T09:22:21;4.65;;;4.22;;
77701;SDS011;66868;42.708;23.404;2023-04-30T09:24:48;5.55;;;3.85;;
77701;SDS011;66868;42.708;23.404;2023-04-30T09:27:18;4.30;;;3.90;;
77701;SDS011;66868;42.708;23.404;2023-04-30T09:29:44;5.13;;;4.40;;
77701;SDS011;66868;42.708;23.404;2023-04-30T09:32:10;3.85;;;3.55;;
77701;SDS011;66868;42.708;23.404;2023-04-30T09:34:36;5.43;;;3.63;;
77701;SDS011;66868;42.708;23.404;2023-04-30T09:37:10;6.13;;;3.95;;
77701;SDS011;66868;42.708;23.404;2023-04-30T09:39:49;4.13;;;3.75;;
77701;SDS011;66868;42.708;23.404;2023-04-30T09:42:16;4.43;;;3.40;;
77701;SDS011;66868;42.708;23.404;2023-04-30T09:44:43;5.32;;;4.85;;
77701;SDS011;66868;42.708;23.404;2023-04-30T09:47:15;8.63;;;3.53;;
77701;SDS011;66868;42.708;23.404;2023-04-30T09:49:50;4.65;;;4.10;;
77701;SDS011;66868;42.708;23.404;2023-04-30T09:52:16;4.15;;;3.75;;
77701;SDS011;66868;42.708;23.404;2023-04-30T09:54:45;3.38;;;3.17;;
77701;SDS011;66868;42.708;23.404;2023-04-30T09:57:13;6.68;;;4.18;;
77701;SDS011;66868;42.708;23.404;2023-04-30T09:59:43;3.60;;;3.00;;
77701;SDS011;66868;42.708;23.404;2023-04-30T10:02:10;3.63;;;3.08;;
77701;SDS011;66868;42.708;23.404;2023-04-30T10:04:38;3.20;;;3.05;;
77701;SDS011;66868;42.708;23.404;2023-04-30T10:07:14;5.35;;;3.40;;
77701;SDS011;66868;42.708;23.404;2023-04-30T10:10:02;3.15;;;2.95;;
77701;SDS011;66868;42.708;23.404;2023-04-30T10:12:42;4.53;;;4.05;;
77701;SDS011;66868;42.708;23.404;2023-04-30T10:15:15;6.47;;;4.00;;
77701;SDS011;66868;42.708;23.404;2023-04-30T10:17:49;12.27;;;4.05;;
77701;SDS011;66868;42.708;23.404;2023-04-30T10:20:17;5.75;;;2.83;;
77701;SDS011;66868;42.708;23.404;2023-04-30T10:22:46;3.40;;;2.75;;
77701;SDS011;66868;42.708;23.404;2023-04-30T10:25:12;4.10;;;3.10;;
77701;SDS011;66868;42.708;23.404;2023-04-30T10:27:38;7.03;;;3.38;;
77701;SDS011;66868;42.708;23.404;2023-04-30T10:30:07;3.65;;;3.42;;
77701;SDS011;66868;42.708;23.404;2023-04-30T10:32:39;11.02;;;8.75;;
77701;SDS011;66868;42.708;23.404;2023-04-30T10:38:09;6.82;;;3.95;;
77701;SDS011;66868;42.708;23.404;2023-04-30T10:40:44;4.45;;;3.63;;
77701;SDS011;66868;42.708;23.404;2023-04-30T10:43:12;3.08;;;2.47;;
77701;SDS011;66868;42.708;23.404;2023-04-30T10:45:38;5.43;;;2.67;;
77701;SDS011;66868;42.708;23.404;2023-04-30T10:48:07;2.28;;;2.00;;
77701;SDS011;66868;42.708;23.404;2023-04-30T10:50:40;2.08;;;1.98;;
77701;SDS011;66868;42.708;23.404;2023-04-30T10:53:13;2.33;;;2.22;;
77701;SDS011;66868;42.708;23.404;2023-04-30T10:55:53;2.60;;;2.00;;
77701;SDS011;66868;42.708;23.404;2023-04-30T10:58:24;2.38;;;2.28;;
77701;SDS011;66868;42.708;23.404;2023-04-30T11:03:29;3.83;;;2.80;;
77701;SDS011;66868;42.708;23.404;2023-04-30T11:05:55;5.43;;;2.08;;
77701;SDS011;66868;42.708;23.404;2023-04-30T11:08:36;2.03;;;2.03;;
77701;SDS011;66868;42.708;23.404;2023-04-30T11:11:02;2.85;;;2.45;;
77701;SDS011;66868;42.708;23.404;2023-04-30T11:16:28;2.22;;;2.10;;
77701;SDS011;66868;42.708;23.404;2023-04-30T11:18:55;2.55;;;2.45;;
77701;SDS011;66868;42.708;23.404;2023-04-30T11:22:14;32.88;;;20.55;;
77701;SDS011;66868;42.708;23.404;2023-04-30T11:27:28;2.10;;;2.00;;
77701;SDS011;66868;42.708;23.404;2023-04-30T11:29:54;2.30;;;2.17;;
77701;SDS011;66868;42.708;23.404;2023-04-30T11:32:24;2.63;;;2.42;;
77701;SDS011;66868;42.708;23.404;2023-04-30T11:34:51;3.28;;;2.40;;
77701;SDS011;66868;42.708;23.404;2023-04-30T11:37:21;3.20;;;3.00;;
77701;SDS011;66868;42.708;23.404;2023-04-30T11:39:53;3.58;;;3.47;;
77701;SDS011;66868;42.708;23.404;2023-04-30T11:42:20;3.67;;;3.47;;
77701;SDS011;66868;42.708;23.404;2023-04-30T11:44:45;3.50;;;3.15;;
77701;SDS011;66868;42.708;23.404;2023-04-30T11:47:11;3.30;;;3.00;;
77701;SDS011;66868;42.708;23.404;2023-04-30T11:49:38;3.20;;;3.10;;
77701;SDS011;66868;42.708;23.404;2023-04-30T11:52:04;3.40;;;2.90;;
77701;SDS011;66868;42.708;23.404;2023-04-30T11:54:32;3.03;;;2.92;;
77701;SDS011;66868;42.708;23.404;2023-04-30T11:56:59;3.53;;;3.22;;
77701;SDS011;66868;42.708;23.404;2023-04-30T11:59:28;4.28;;;3.88;;
77701;SDS011;66868;42.708;23.404;2023-04-30T12:01:54;3.35;;;3.25;;
77701;SDS011;66868;42.708;23.404;2023-04-30T12:04:20;3.38;;;3.28;;
77701;SDS011;66868;42.708;23.404;2023-04-30T12:06:46;3.63;;;3.30;;
77701;SDS011;66868;42.708;23.404;2023-04-30T12:09:12;3.45;;;2.90;;
77701;SDS011;66868;42.708;23.404;2023-04-30T12:11:37;3.63;;;2.92;;
77701;SDS011;66868;42.708;23.404;2023-04-30T12:14:03;3.00;;;2.85;;
77701;SDS011;66868;42.708;23.404;2023-04-30T12:16:52;10.18;;;3.58;;
77701;SDS011;66868;42.708;23.404;2023-04-30T12:19:19;5.82;;;2.85;;
77701;SDS011;66868;42.708;23.404;2023-04-30T12:21:46;11.73;;;3.30;;
77701;SDS011;66868;42.708;23.404;2023-04-30T12:24:13;5.47;;;4.80;;
77701;SDS011;66868;42.708;23.404;2023-04-30T12:26:40;6.20;;;5.28;;
77701;SDS011;66868;42.708;23.404;2023-04-30T12:29:09;10.40;;;5.15;;
77701;SDS011;66868;42.708;23.404;2023-04-30T12:31:36;3.00;;;2.80;;
77701;SDS011;66868;42.708;23.404;2023-04-30T12:34:06;3.10;;;2.90;;
77701;SDS011;66868;42.708;23.404;2023-04-30T12:36:33;3.70;;;3.45;;
77701;SDS011;66868;42.708;23.404;2023-04-30T12:39:07;3.10;;;2.83;;
77701;SDS011;66868;42.708;23.404;2023-04-30T12:41:35;5.10;;;4.00;;
77701;SDS011;66868;42.708;23.404;2023-04-30T12:46:39;3.33;;;3.22;;
77701;SDS011;66868;42.708;23.404;2023-04-30T12:49:05;4.55;;;4.25;;
77701;SDS011;66868;42.708;23.404;2023-04-30T12:51:32;5.13;;;4.72;;
77701;SDS011;66868;42.708;23.404;2023-04-30T12:53:59;4.95;;;4.55;;
77701;SDS011;66868;42.708;23.404;2023-04-30T12:56:24;3.97;;;3.78;;
77701;SDS011;66868;42.708;23.404;2023-04-30T12:58:50;3.50;;;3.30;;
77701;SDS011;66868;42.708;23.404;2023-04-30T13:01:19;5.57;;;3.15;;
77701;SDS011;66868;42.708;23.404;2023-04-30T13:03:46;2.75;;;2.65;;
77701;SDS011;66868;42.708;23.404;2023-04-30T13:06:12;4.55;;;2.83;;
77701;SDS011;66868;42.708;23.404;2023-04-30T13:08:37;3.58;;;2.92;;
77701;SDS011;66868;42.708;23.404;2023-04-30T13:11:03;2.72;;;2.63;;
77701;SDS011;66868;42.708;23.404;2023-04-30T13:13:29;3.05;;;2.95;;
77701;SDS011;66868;42.708;23.404;2023-04-30T13:15:55;3.47;;;2.50;;
77701;SDS011;66868;42.708;23.404;2023-04-30T13:18:20;3.28;;;3.03;;
77701;SDS011;66868;42.708;23.404;2023-04-30T13:20:46;6.07;;;3.88;;
77701;SDS011;66868;42.708;23.404;2023-04-30T13:23:11;3.70;;;3.50;;
77701;SDS011;66868;42.708;23.404;2023-04-30T13:25:37;4.88;;;4.50;;
77701;SDS011;66868;42.708;23.404;2023-04-30T13:28:03;3.17;;;3.00;;
77701;SDS011;66868;42.708;23.404;2023-04-30T13:30:29;5.05;;;3.65;;
77701;SDS011;66868;42.708;23.404;2023-04-30T13:32:54;2.67;;;2.47;;
77701;SDS011;66868;42.708;23.404;2023-04-30T13:35:20;2.30;;;2.20;;
77701;SDS011;66868;42.708;23.404;2023-04-30T13:37:45;2.35;;;2.22;;
77701;SDS011;66868;42.708;23.404;2023-04-30T13:40:16;2.38;;;2.15;;
77701;SDS011;66868;42.708;23.404;2023-04-30T13:42:43;2.53;;;2.25;;
77701;SDS011;66868;42.708;23.404;2023-04-30T13:45:10;2.72;;;2.53;;
77701;SDS011;66868;42.708;23.404;2023-04-30T13:47:35;2.55;;;2.45;;
77701;SDS011;66868;42.708;23.404;2023-04-30T13:50:01;2.33;;;2.22;;
77701;SDS011;66868;42.708;23.404;2023-04-30T13:52:27;1.95;;;1.85;;
77701;SDS011;66868;42.708;23.404;2023-04-30T13:54:53;1.70;;;1.70;;
77701;SDS011;66868;42.708;23.404;2023-04-30T13:57:18;1.80;;;1.40;;
77701;SDS011;66868;42.708;23.404;2023-04-30T13:59:44;2.00;;;1.70;;
77701;SDS011;66868;42.708;23.404;2023-04-30T14:02:09;1.52;;;1.40;;
77701;SDS011;66868;42.708;23.404;2023-04-30T14:04:35;2.35;;;1.70;;
77701;SDS011;66868;42.708;23.404;2023-04-30T14:07:02;1.90;;;1.80;;
77701;SDS011;66868;42.708;23.404;2023-04-30T14:09:27;2.40;;;1.65;;
77701;SDS011;66868;42.708;23.404;2023-04-30T14:11:53;1.90;;;1.48;;
77701;SDS011;66868;42.708;23.404;2023-04-30T14:14:21;2.25;;;1.88;;
77701;SDS011;66868;42.708;23.404;2023-04-30T14:16:47;7.40;;;1.80;;
77701;SDS011;66868;42.708;23.404;2023-04-30T14:19:12;1.77;;;1.67;;
77701;SDS011;66868;42.708;23.404;2023-04-30T14:21:38;1.75;;;1.65;;
77701;SDS011;66868;42.708;23.404;2023-04-30T14:24:03;1.92;;;1.83;;
77701;SDS011;66868;42.708;23.404;2023-04-30T14:26:29;1.88;;;1.77;;
77701;SDS011;66868;42.708;23.404;2023-04-30T14:28:55;1.65;;;1.55;;
77701;SDS011;66868;42.708;23.404;2023-04-30T14:31:21;1.45;;;1.45;;
77701;SDS011;66868;42.708;23.404;2023-04-30T14:33:46;4.00;;;1.48;;
77701;SDS011;66868;42.708;23.404;2023-04-30T14:36:12;1.70;;;1.60;;
77701;SDS011;66868;42.708;23.404;2023-04-30T14:38:37;1.52;;;1.20;;
77701;SDS011;66868;42.708;23.404;2023-04-30T14:41:02;1.02;;;1.02;;
77701;SDS011;66868;42.708;23.404;2023-04-30T14:43:28;1.63;;;1.52;;
77701;SDS011;66868;42.708;23.404;2023-04-30T14:45:53;1.30;;;1.20;;
77701;SDS011;66868;42.708;23.404;2023-04-30T14:48:19;2.58;;;1.20;;
77701;SDS011;66868;42.708;23.404;2023-04-30T14:50:44;1.23;;;1.23;;
77701;SDS011;66868;42.708;23.404;2023-04-30T14:53:09;1.17;;;1.17;;
77701;SDS011;66868;42.708;23.404;2023-04-30T14:55:36;1.80;;;1.45;;
77701;SDS011;66868;42.708;23.404;2023-04-30T14:58:03;1.25;;;1.20;;